Mississagi — CFG8050 — position and weather

sailwx.info

Track history (hours):
 
Tides and Currents Weather Stations Pressure Air Temp Water Temp Dewpoint Dewpoint Depression Visibility Wind Speed Wind Dir Waves Ship Positions

Mississagi

Last reported at 2014-Oct-13 01:08 UTC. Time now 2014-Oct-22 01:34 UTC.
Position N 45°48' W 083°59'.
Warning: this ship's position is 9 days out of date.

Length 189 m; draft 7.2 m.

Type: Cargo ship. MMSI: 316004940.

Date/timePositionNaut miles runAvg speedWind from/ knotsBaromVisibWave heightAir tempDewpointWater temp
2014-Oct-13 01:08N 45°48' W 083°59'610.5
2014-Oct-13 00:33N 45°52' W 084°06'10 9.7
2014-Oct-12 23:33N 45°59' W 084°16'0 0.2
2014-Oct-12 22:33N 45°59' W 084°16'0 0.0
2014-Oct-12 21:33N 45°59' W 084°16'0 0.0
2014-Oct-12 20:33N 45°59' W 084°16'0 0.0
2014-Oct-12 19:33N 45°59' W 084°16'0 0.0
2014-Oct-12 18:33N 45°59' W 084°16'0 0.0
2014-Oct-12 17:33N 45°59' W 084°16'0 0.0
2014-Oct-12 16:33N 45°59' W 084°16'0 0.0
2014-Oct-12 15:33N 45°59' W 084°16'0 0.2
2014-Oct-12 14:33N 45°59' W 084°17'1 0.7
2014-Oct-12 13:33N 45°59' W 084°16'7 7.1
2014-Oct-12 12:33N 45°54' W 084°09'1211.5
2014-Oct-12 11:33N 45°49' W 083°53'1211.9
2014-Oct-12 10:33N 45°45' W 083°38'12 0.4
2014-Oct-11 05:05N 45°46' W 083°55'611.3
2014-Oct-11 04:32N 45°49' W 084°03'1111.1
2014-Oct-11 03:33N 45°51' W 084°19'1111.1
2014-Oct-11 02:33N 45°51' W 084°35'1110.5
2014-Oct-11 01:33N 45°49' W 084°50'1110.6
2014-Oct-11 00:33N 45°53' W 085°04'9 8.7
2014-Oct-10 23:33N 46°02' W 085°07'1 0.9
2014-Oct-10 22:33N 46°02' W 085°06'0 0.0
2014-Oct-10 21:33N 46°02' W 085°06'0 0.0
2014-Oct-10 20:33N 46°02' W 085°06'0 0.0
2014-Oct-10 19:33N 46°02' W 085°06'0 0.0
2014-Oct-10 18:33N 46°02' W 085°06'0 0.0
2014-Oct-10 17:33N 46°02' W 085°06'0 0.0
2014-Oct-10 16:33N 46°02' W 085°06'2 2.1
2014-Oct-10 15:33N 46°01' W 085°09'10 9.8
2014-Oct-10 14:33N 45°52' W 085°07'1110.9
2014-Oct-10 13:33N 45°42' W 085°13'1212.0
2014-Oct-10 12:33N 45°32' W 085°23'1211.8
2014-Oct-10 11:33N 45°23' W 085°33'1212.0
2014-Oct-10 10:33N 45°13' W 085°44'1211.9
2014-Oct-10 09:33N 45°03' W 085°54'39 0.8
2014-Oct-08 06:33N 45°39' W 086°17'1111.0
2014-Oct-08 05:33N 45°45' W 086°04'1111.0
2014-Oct-08 04:33N 45°51' W 085°51'1110.7
2014-Oct-08 03:33N 45°54' W 085°36'1110.7
2014-Oct-08 02:33N 45°53' W 085°20'1110.7
2014-Oct-08 01:33N 45°51' W 085°05'1111.2
2014-Oct-08 00:34N 45°49' W 084°50'1110.7
2014-Oct-07 23:33N 45°51' W 084°34'1110.9
2014-Oct-07 22:33N 45°52' W 084°19'1110.5
2014-Oct-07 21:33N 45°54' W 084°04'26 2.1
2014-Oct-07 09:21N 46°17' W 083°46'0 0.2
2014-Oct-07 08:31N 46°16' W 083°46'1010.1
2014-Oct-07 07:33N 46°08' W 083°38'26 6.4
2014-Oct-07 03:29N 45°44' W 083°52'5 5.0
2014-Oct-07 02:33N 45°48' W 083°55'1411.1
2014-Oct-07 01:20N 46°02' W 083°55'910.5
2014-Oct-07 00:28N 46°09' W 084°03'6 0.4
2014-Oct-06 08:15N 46°15' W 084°06'8 7.9
2014-Oct-06 07:10N 46°08' W 084°01'9 9.4
2014-Oct-06 06:10N 45°60' W 083°53'  
Track history (hours):
 
Tides and Currents Weather Stations Pressure Air Temp Water Temp Dewpoint Dewpoint Depression Visibility Wind Speed Wind Dir Waves Ship Positions

Mississagi

Last reported at 2014-Oct-13 01:08 UTC. Time now 2014-Oct-22 01:34 UTC.
Position N 45°48' W 083°59'.
Warning: this ship's position is 9 days out of date.

Length 189 m; draft 7.2 m.

Type: Cargo ship. MMSI: 316004940.

Date/timePositionNaut miles runAvg speedWind from/ knotsBaromVisibWave heightAir tempDewpointWater temp
2014-Oct-13 01:08N 45°48' W 083°59'610.5
2014-Oct-13 00:33N 45°52' W 084°06'10 9.7
2014-Oct-12 23:33N 45°59' W 084°16'0 0.2
2014-Oct-12 22:33N 45°59' W 084°16'0 0.0
2014-Oct-12 21:33N 45°59' W 084°16'0 0.0
2014-Oct-12 20:33N 45°59' W 084°16'0 0.0
2014-Oct-12 19:33N 45°59' W 084°16'0 0.0
2014-Oct-12 18:33N 45°59' W 084°16'0 0.0
2014-Oct-12 17:33N 45°59' W 084°16'0 0.0
2014-Oct-12 16:33N 45°59' W 084°16'0 0.0
2014-Oct-12 15:33N 45°59' W 084°16'0 0.2
2014-Oct-12 14:33N 45°59' W 084°17'1 0.7
2014-Oct-12 13:33N 45°59' W 084°16'7 7.1
2014-Oct-12 12:33N 45°54' W 084°09'1211.5
2014-Oct-12 11:33N 45°49' W 083°53'1211.9
2014-Oct-12 10:33N 45°45' W 083°38'12 0.4
2014-Oct-11 05:05N 45°46' W 083°55'611.3
2014-Oct-11 04:32N 45°49' W 084°03'1111.1
2014-Oct-11 03:33N 45°51' W 084°19'1111.1
2014-Oct-11 02:33N 45°51' W 084°35'1110.5
2014-Oct-11 01:33N 45°49' W 084°50'1110.6
2014-Oct-11 00:33N 45°53' W 085°04'9 8.7
2014-Oct-10 23:33N 46°02' W 085°07'1 0.9
2014-Oct-10 22:33N 46°02' W 085°06'0 0.0
2014-Oct-10 21:33N 46°02' W 085°06'0 0.0
2014-Oct-10 20:33N 46°02' W 085°06'0 0.0
2014-Oct-10 19:33N 46°02' W 085°06'0 0.0
2014-Oct-10 18:33N 46°02' W 085°06'0 0.0
2014-Oct-10 17:33N 46°02' W 085°06'0 0.0
2014-Oct-10 16:33N 46°02' W 085°06'2 2.1
2014-Oct-10 15:33N 46°01' W 085°09'10 9.8
2014-Oct-10 14:33N 45°52' W 085°07'1110.9
2014-Oct-10 13:33N 45°42' W 085°13'1212.0
2014-Oct-10 12:33N 45°32' W 085°23'1211.8
2014-Oct-10 11:33N 45°23' W 085°33'1212.0
2014-Oct-10 10:33N 45°13' W 085°44'1211.9
2014-Oct-10 09:33N 45°03' W 085°54'39 0.8
2014-Oct-08 06:33N 45°39' W 086°17'1111.0
2014-Oct-08 05:33N 45°45' W 086°04'1111.0
2014-Oct-08 04:33N 45°51' W 085°51'1110.7
2014-Oct-08 03:33N 45°54' W 085°36'1110.7
2014-Oct-08 02:33N 45°53' W 085°20'1110.7
2014-Oct-08 01:33N 45°51' W 085°05'1111.2
2014-Oct-08 00:34N 45°49' W 084°50'1110.7
2014-Oct-07 23:33N 45°51' W 084°34'1110.9
2014-Oct-07 22:33N 45°52' W 084°19'1110.5
2014-Oct-07 21:33N 45°54' W 084°04'26 2.1
2014-Oct-07 09:21N 46°17' W 083°46'0 0.2
2014-Oct-07 08:31N 46°16' W 083°46'1010.1
2014-Oct-07 07:33N 46°08' W 083°38'26 6.4
2014-Oct-07 03:29N 45°44' W 083°52'5 5.0
2014-Oct-07 02:33N 45°48' W 083°55'1411.1
2014-Oct-07 01:20N 46°02' W 083°55'910.5
2014-Oct-07 00:28N 46°09' W 084°03'6 0.4
2014-Oct-06 08:15N 46°15' W 084°06'8 7.9
2014-Oct-06 07:10N 46°08' W 084°01'9 9.4
2014-Oct-06 06:10N 45°60' W 083°53'  

Dump ship's entire track history